Moosonee, Canada
Current Conditions -  °F | °C
As of 5:30 AM on Monday 20 Oct 2014 (Local Time) from CYMO Reporting Station
Scattered Clouds Scattered Clouds  
Wind Chill: 26°   Ceiling: Unl
Heat Index: 32°   Visibility: 9mi
Dew Point: 28°   Wind: 7mph
Humidity: 87%   Direction: 100°E
Pressure: 29.9"   Gusts: NA
Location:  51.27°N, 80.64°W
Report Text: CYMO 200930Z AUTO 10006KT 9SM FEW100 SCT120 SCT150 M00/M02 A2990 RMK SLP124
Loading
Personal Weather Stations






























Interactive Weather Map New forecast layout! Learn more

10-Day Weather Forecast

Advertisements
Track Severe Weather on mobile